createdAt,value
2022-11-21T00:00:58.236Z,2.17
2022-11-21T00:03:25.205Z,0.35
2022-11-21T00:05:52.709Z,0.30
2022-11-21T00:08:21.235Z,0.40
2022-11-21T00:10:48.541Z,0.50
2022-11-21T00:13:18.472Z,0.50
2022-11-21T00:15:46.340Z,0.63
2022-11-21T00:18:13.585Z,0.40
2022-11-21T00:20:43.890Z,1.13
2022-11-21T00:23:11.786Z,2.20
2022-11-21T00:25:39.548Z,1.70
2022-11-21T00:28:06.586Z,2.17
2022-11-21T00:30:33.708Z,0.85
2022-11-21T00:33:00.445Z,0.30
2022-11-21T00:35:27.590Z,0.75
2022-11-21T00:37:54.600Z,2.38
2022-11-21T00:40:22.022Z,0.63
2022-11-21T00:42:49.151Z,0.50
2022-11-21T00:45:21.191Z,1.00
2022-11-21T00:47:50.582Z,2.05
2022-11-21T00:50:17.344Z,2.28
2022-11-21T00:52:43.968Z,0.60
2022-11-21T00:55:10.612Z,0.95
2022-11-21T00:57:37.226Z,0.30
2022-11-21T01:00:05.792Z,0.65
2022-11-21T01:02:33.018Z,0.30
2022-11-21T01:04:59.710Z,0.30
2022-11-21T01:07:26.937Z,1.75
2022-11-21T01:09:53.704Z,1.08
2022-11-21T01:12:20.413Z,0.40
2022-11-21T01:14:47.614Z,0.55
2022-11-21T01:17:14.514Z,0.93
2022-11-21T01:19:41.154Z,1.83
2022-11-21T01:22:07.824Z,0.82
2022-11-21T01:24:34.497Z,0.40
2022-11-21T01:27:01.148Z,0.25
2022-11-21T01:29:28.276Z,0.50
2022-11-21T01:31:54.930Z,0.20
2022-11-21T01:34:21.571Z,2.08
2022-11-21T01:36:48.275Z,0.45
2022-11-21T01:39:16.141Z,0.68
2022-11-21T01:41:45.754Z,1.45
2022-11-21T01:44:21.997Z,1.38
2022-11-21T01:46:50.665Z,1.48
2022-11-21T01:49:26.077Z,1.05
2022-11-21T01:52:04.694Z,0.40
2022-11-21T01:54:40.747Z,4.53
2022-11-21T01:57:19.306Z,3.85
2022-11-21T01:59:52.467Z,0.63
2022-11-21T02:02:22.904Z,2.13
2022-11-21T02:04:52.098Z,0.40
2022-11-21T02:07:21.819Z,2.85
2022-11-21T02:09:54.201Z,1.85
2022-11-21T02:12:56.235Z,2.17
2022-11-21T02:15:25.858Z,2.60
2022-11-21T02:17:53.081Z,0.85
2022-11-21T02:20:22.829Z,1.65
2022-11-21T02:22:53.144Z,1.10
2022-11-21T02:25:28.252Z,0.50
2022-11-21T02:28:05.396Z,4.90
2022-11-21T02:30:35.489Z,0.70
2022-11-21T02:33:02.476Z,2.45
2022-11-21T02:35:29.344Z,2.50
2022-11-21T02:38:14.436Z,1.50
2022-11-21T02:40:46.025Z,1.38
2022-11-21T02:43:28.474Z,0.30
2022-11-21T02:48:22.392Z,1.35
2022-11-21T02:50:49.284Z,2.85
2022-11-21T02:53:18.829Z,3.20
2022-11-21T02:55:45.784Z,3.00
2022-11-21T02:58:12.863Z,1.17
2022-11-21T03:00:41.770Z,3.80
2022-11-21T03:03:09.403Z,1.98
2022-11-21T03:05:37.197Z,0.82
2022-11-21T03:08:05.238Z,2.58
2022-11-21T03:10:32.897Z,4.20
2022-11-21T03:13:02.844Z,1.10
2022-11-21T03:15:33.145Z,0.70
2022-11-21T03:18:02.717Z,2.20
2022-11-21T03:20:34.516Z,1.98
2022-11-21T03:23:01.578Z,0.70
2022-11-21T03:25:28.353Z,0.52
2022-11-21T03:27:55.354Z,1.63
2022-11-21T03:30:24.079Z,0.55
2022-11-21T03:32:50.964Z,2.83
2022-11-21T03:35:17.721Z,0.85
2022-11-21T03:37:44.444Z,1.67
2022-11-21T03:40:11.932Z,0.50
2022-11-21T03:42:38.632Z,0.60
2022-11-21T03:45:05.933Z,0.75
2022-11-21T03:47:32.813Z,0.93
2022-11-21T03:49:59.452Z,1.63
2022-11-21T03:52:26.100Z,0.82
2022-11-21T03:54:52.810Z,2.38
2022-11-21T03:57:19.492Z,0.85
2022-11-21T03:59:46.194Z,1.65
2022-11-21T04:02:12.949Z,1.23
2022-11-21T04:04:39.614Z,0.85
2022-11-21T04:07:06.288Z,0.88
2022-11-21T04:09:32.976Z,1.35
2022-11-21T04:12:01.691Z,1.20
2022-11-21T04:14:31.725Z,1.15
2022-11-21T04:16:58.354Z,2.78
2022-11-21T04:19:25.057Z,0.95
2022-11-21T04:21:51.717Z,1.65
2022-11-21T04:24:18.391Z,0.93
2022-11-21T04:26:44.980Z,1.88
2022-11-21T04:29:11.611Z,0.65
2022-11-21T04:31:38.253Z,0.98
2022-11-21T04:34:04.927Z,1.10
2022-11-21T04:36:31.855Z,1.23
2022-11-21T04:38:58.505Z,1.77
2022-11-21T04:41:25.155Z,1.00
2022-11-21T04:43:51.761Z,1.45
2022-11-21T04:46:18.422Z,3.15
2022-11-21T04:48:45.052Z,1.35
2022-11-21T04:51:11.759Z,3.25
2022-11-21T04:53:42.755Z,1.85
2022-11-21T04:56:10.552Z,4.07
2022-11-21T04:58:37.281Z,4.80
2022-11-21T05:01:08.851Z,8.73
2022-11-21T05:03:36.295Z,8.20
2022-11-21T05:06:03.374Z,3.33
2022-11-21T05:08:30.025Z,2.42
2022-11-21T05:11:15.347Z,2.15
2022-11-21T05:13:41.982Z,1.15
2022-11-21T05:16:08.702Z,1.25
2022-11-21T05:18:35.360Z,0.68
2022-11-21T05:21:03.098Z,1.88
2022-11-21T05:23:29.885Z,0.52
2022-11-21T05:25:56.711Z,0.90
2022-11-21T05:28:23.394Z,1.67
2022-11-21T05:30:50.052Z,1.08
2022-11-21T05:33:17.127Z,2.25
2022-11-21T05:35:44.029Z,0.75
2022-11-21T05:38:11.163Z,2.42
2022-11-21T05:40:37.958Z,2.25
2022-11-21T05:43:23.228Z,3.63
2022-11-21T05:45:50.742Z,2.67
2022-11-21T05:48:18.259Z,2.08
2022-11-21T05:50:48.857Z,2.15
2022-11-21T05:53:16.526Z,2.20
2022-11-21T05:55:43.432Z,2.78
2022-11-21T05:58:10.982Z,1.23
2022-11-21T06:00:38.400Z,1.75
2022-11-21T06:03:25.187Z,2.67
2022-11-21T06:05:52.004Z,2.92
2022-11-21T06:08:18.904Z,1.13
2022-11-21T06:10:45.639Z,0.88
2022-11-21T06:13:24.338Z,3.10
2022-11-21T06:15:58.957Z,1.00
2022-11-21T06:18:26.673Z,0.80
2022-11-21T06:20:53.707Z,0.90
2022-11-21T06:23:20.412Z,0.85
2022-11-21T06:25:47.059Z,1.80
2022-11-21T06:28:13.677Z,1.88
2022-11-21T06:30:40.384Z,2.28
2022-11-21T06:33:07.466Z,2.38
2022-11-21T06:35:38.043Z,2.35
2022-11-21T06:38:04.867Z,1.75
2022-11-21T06:40:31.524Z,4.60
2022-11-21T06:42:58.201Z,2.92
2022-11-21T06:45:24.869Z,0.68
2022-11-21T06:47:51.522Z,3.20
2022-11-21T06:50:18.338Z,2.63
2022-11-21T06:52:44.958Z,1.90
2022-11-21T06:55:11.966Z,2.85
2022-11-21T06:57:38.565Z,2.88
2022-11-21T07:00:06.657Z,3.85
2022-11-21T07:02:33.347Z,1.55
2022-11-21T07:04:59.981Z,2.97
2022-11-21T07:07:26.634Z,1.88
2022-11-21T07:09:53.325Z,1.08
2022-11-21T07:12:46.090Z,2.42
2022-11-21T07:17:39.335Z,0.82
2022-11-21T07:20:06.631Z,1.23
2022-11-21T07:22:33.253Z,2.80
2022-11-21T07:24:59.890Z,1.50
2022-11-21T07:27:26.549Z,1.23
2022-11-21T07:29:53.232Z,2.35
2022-11-21T07:32:19.927Z,1.70
2022-11-21T07:34:46.598Z,2.80
2022-11-21T07:37:13.213Z,1.58
2022-11-21T07:39:39.937Z,3.45
2022-11-21T07:42:06.589Z,2.00
2022-11-21T07:44:36.277Z,1.90
2022-11-21T07:47:02.907Z,1.33
2022-11-21T07:49:29.761Z,2.88
2022-11-21T07:51:56.632Z,1.33
2022-11-21T07:54:23.280Z,1.65
2022-11-21T07:56:49.938Z,2.85
2022-11-21T07:59:19.233Z,1.70
2022-11-21T08:01:46.010Z,1.35
2022-11-21T08:04:12.751Z,1.90
2022-11-21T08:06:39.388Z,4.75
2022-11-21T08:09:05.997Z,2.25
2022-11-21T08:11:32.717Z,2.30
2022-11-21T08:13:59.698Z,1.52
2022-11-21T08:16:28.191Z,1.10
2022-11-21T08:18:54.933Z,3.65
2022-11-21T08:21:21.625Z,6.38
2022-11-21T08:23:48.806Z,2.53
2022-11-21T08:26:15.483Z,3.63
2022-11-21T08:28:42.154Z,1.00
2022-11-21T08:31:08.847Z,4.90
2022-11-21T08:33:35.664Z,1.73
2022-11-21T08:36:06.202Z,3.70
2022-11-21T08:38:33.570Z,3.50
2022-11-21T08:41:18.895Z,3.53
2022-11-21T08:43:45.742Z,4.25
2022-11-21T08:46:12.464Z,7.07
2022-11-21T08:48:39.103Z,1.98
2022-11-21T08:51:05.751Z,2.05
2022-11-21T08:53:32.361Z,2.70
2022-11-21T08:56:03.799Z,3.88
2022-11-21T08:58:31.145Z,3.83
2022-11-21T09:00:59.276Z,2.08
2022-11-21T09:03:30.856Z,5.05
2022-11-21T09:05:58.704Z,2.55
2022-11-21T09:08:25.706Z,4.97
2022-11-21T09:10:52.403Z,4.95
2022-11-21T09:13:19.121Z,2.22
2022-11-21T09:16:04.443Z,6.30
2022-11-21T09:18:31.071Z,5.47
2022-11-21T09:20:58.999Z,2.90
2022-11-21T09:23:25.829Z,2.42
2022-11-21T09:25:52.538Z,4.30
2022-11-21T09:28:19.194Z,2.38
2022-11-21T09:30:46.311Z,2.95
2022-11-21T09:33:15.214Z,2.53
2022-11-21T09:35:41.896Z,5.35
2022-11-21T09:38:08.972Z,2.22
2022-11-21T09:40:36.149Z,3.08
2022-11-21T09:43:27.877Z,3.75
2022-11-21T09:46:08.041Z,4.22
2022-11-21T09:48:58.860Z,6.70
2022-11-21T09:51:29.778Z,8.75
2022-11-21T09:53:59.323Z,4.22
2022-11-21T09:56:29.134Z,4.32
2022-11-21T09:58:55.699Z,3.78
2022-11-21T10:01:22.427Z,3.47
2022-11-21T10:03:52.306Z,3.63
2022-11-21T10:06:22.035Z,5.53
2022-11-21T10:09:19.391Z,5.80
2022-11-21T10:12:22.301Z,2.22
2022-11-21T10:18:06.263Z,2.53
2022-11-21T10:20:41.951Z,2.90
2022-11-21T10:23:32.194Z,5.10
2022-11-21T10:26:20.665Z,3.28
2022-11-21T10:28:56.402Z,2.33
2022-11-21T10:31:23.120Z,2.05
2022-11-21T10:33:52.427Z,2.40
2022-11-21T10:36:37.517Z,2.65
2022-11-21T10:39:35.934Z,4.03
2022-11-21T10:42:35.224Z,3.20
2022-11-21T10:45:19.893Z,1.55
2022-11-21T10:47:50.176Z,2.83
2022-11-21T10:50:32.010Z,2.78
2022-11-21T10:53:24.242Z,2.65
2022-11-21T10:56:10.558Z,3.55
2022-11-21T10:58:44.054Z,2.75
2022-11-21T11:01:19.932Z,2.90
2022-11-21T11:04:06.903Z,5.45
2022-11-21T11:06:33.599Z,2.97
2022-11-21T11:09:00.233Z,2.40
2022-11-21T11:11:26.962Z,3.45
2022-11-21T11:14:04.007Z,3.45
2022-11-21T11:16:40.155Z,4.45
2022-11-21T11:19:35.403Z,7.10
2022-11-21T11:22:27.438Z,3.10
2022-11-21T11:24:57.608Z,4.53
2022-11-21T11:27:29.158Z,4.45
2022-11-21T11:29:56.186Z,6.03
2022-11-21T11:32:23.647Z,2.67
2022-11-21T11:35:00.423Z,3.97
2022-11-21T11:37:41.872Z,2.50
2022-11-21T11:40:18.839Z,4.38
2022-11-21T11:43:41.477Z,4.03
2022-11-21T11:46:53.609Z,2.40
2022-11-21T11:49:52.907Z,1.40
2022-11-21T11:52:24.508Z,1.58
2022-11-21T11:55:01.270Z,4.88
2022-11-21T11:57:31.541Z,5.07
2022-11-21T12:00:19.414Z,3.95
2022-11-21T12:03:00.703Z,3.15
2022-11-21T12:05:30.270Z,3.90
2022-11-21T12:08:40.888Z,2.92
2022-11-21T12:11:52.136Z,6.65
2022-11-21T12:14:57.622Z,5.95
2022-11-21T12:17:31.124Z,4.18
2022-11-21T12:19:59.517Z,2.40
2022-11-21T12:22:26.182Z,3.15
2022-11-21T12:24:53.409Z,2.85
2022-11-21T12:27:32.873Z,1.95
2022-11-21T12:30:14.981Z,2.63
2022-11-21T12:33:06.628Z,2.92
2022-11-21T12:36:16.613Z,4.32
2022-11-21T12:39:09.162Z,4.53
2022-11-21T12:42:15.748Z,4.47
2022-11-21T12:44:54.520Z,1.45
2022-11-21T12:47:56.352Z,2.92
2022-11-21T12:51:06.301Z,2.53
2022-11-21T12:54:04.645Z,1.60
2022-11-21T12:57:00.518Z,3.55
2022-11-21T12:59:29.780Z,3.75
2022-11-21T13:02:27.777Z,5.65
2022-11-21T13:04:57.361Z,7.65
2022-11-21T13:07:29.495Z,5.88
2022-11-21T13:09:58.760Z,6.13
2022-11-21T13:12:40.267Z,4.00
2022-11-21T13:15:10.169Z,4.45
2022-11-21T13:17:52.426Z,5.25
2022-11-21T13:20:31.762Z,3.70
2022-11-21T13:23:06.448Z,5.72
2022-11-21T13:25:33.154Z,4.20
2022-11-21T13:28:18.308Z,4.15
2022-11-21T13:30:55.892Z,4.63
2022-11-21T13:33:34.744Z,5.30
2022-11-21T13:36:11.093Z,3.60
2022-11-21T13:38:53.142Z,1.75
2022-11-21T13:41:53.903Z,2.50
2022-11-21T13:44:35.765Z,19.02
2022-11-21T13:47:12.332Z,11.95
2022-11-21T13:50:10.205Z,6.53
2022-11-21T13:52:49.605Z,2.75
2022-11-21T13:55:38.497Z,2.60
2022-11-21T13:58:19.365Z,3.22
2022-11-21T14:01:04.360Z,3.63
2022-11-21T14:03:30.995Z,2.13
2022-11-21T14:06:16.268Z,2.55
2022-11-21T14:08:43.944Z,2.13
2022-11-21T14:11:22.383Z,5.43
2022-11-21T14:13:50.119Z,3.47
2022-11-21T14:16:23.266Z,3.05
2022-11-21T14:18:50.818Z,2.28
2022-11-21T14:21:27.986Z,3.97
2022-11-21T14:23:58.543Z,2.30
2022-11-21T14:26:25.701Z,2.90
2022-11-21T14:28:52.598Z,5.63
2022-11-21T14:31:19.367Z,4.65
2022-11-21T14:33:47.688Z,4.78
2022-11-21T14:36:22.098Z,5.05
2022-11-21T14:39:13.764Z,2.75
2022-11-21T14:41:39.771Z,1.88
2022-11-21T14:44:16.209Z,3.25
2022-11-21T14:46:44.059Z,2.05
2022-11-21T14:49:16.693Z,1.88
2022-11-21T14:51:45.518Z,4.60
2022-11-21T14:54:16.809Z,4.97
2022-11-21T14:56:47.077Z,3.53
2022-11-21T14:59:43.138Z,2.75
2022-11-21T15:02:22.948Z,3.53
2022-11-21T15:04:51.169Z,5.93
2022-11-21T15:07:26.958Z,3.45
2022-11-21T15:13:10.014Z,4.88
2022-11-21T15:15:42.027Z,14.43
2022-11-21T15:18:27.531Z,10.07
2022-11-21T15:21:01.622Z,9.05
2022-11-21T15:23:34.084Z,8.30
2022-11-21T15:26:01.831Z,10.98
2022-11-21T15:28:29.485Z,9.82
2022-11-21T15:31:16.752Z,5.57
2022-11-21T15:37:12.290Z,5.90
2022-11-21T15:39:48.004Z,8.85
2022-11-21T15:42:33.369Z,14.15
2022-11-21T15:45:26.147Z,6.00
2022-11-21T15:50:23.273Z,6.15
2022-11-21T15:52:51.625Z,4.70
2022-11-21T15:55:25.389Z,6.50
2022-11-21T15:57:13.219Z,6.05
2022-11-21T15:57:52.014Z,4.80
2022-11-21T16:00:18.829Z,4.85
2022-11-21T16:02:45.571Z,6.15
2022-11-21T16:05:14.193Z,4.32
2022-11-21T16:07:41.844Z,6.78
2022-11-21T16:10:17.196Z,4.32
2022-11-21T16:12:48.381Z,6.63
2022-11-21T16:15:15.243Z,6.63
2022-11-21T16:17:41.935Z,6.95
2022-11-21T16:20:09.067Z,12.05
2022-11-21T16:22:35.684Z,11.73
2022-11-21T16:25:02.342Z,10.25
2022-11-21T16:27:29.502Z,8.43
2022-11-21T16:29:56.148Z,8.73
2022-11-21T16:32:25.665Z,5.53
2022-11-21T16:34:52.511Z,7.38
2022-11-21T16:37:19.209Z,6.88
2022-11-21T16:39:51.823Z,9.25
2022-11-21T16:42:19.479Z,9.77
2022-11-21T16:44:46.103Z,7.03
2022-11-21T16:47:14.009Z,7.53
2022-11-21T16:49:44.989Z,8.95
2022-11-21T16:52:11.734Z,12.32
2022-11-21T16:54:38.438Z,9.85
2022-11-21T16:57:05.338Z,8.35
2022-11-21T16:59:32.653Z,7.85
2022-11-21T17:01:59.672Z,4.55
2022-11-21T17:04:26.283Z,6.82
2022-11-21T17:06:53.338Z,5.22
2022-11-21T17:09:20.028Z,6.53
2022-11-21T17:11:46.873Z,6.07
2022-11-21T17:14:13.801Z,4.28
2022-11-21T17:16:41.719Z,10.00
2022-11-21T17:19:11.575Z,3.90
2022-11-21T17:21:38.313Z,8.40
2022-11-21T17:24:05.135Z,2.25
2022-11-21T17:26:31.814Z,6.38
2022-11-21T17:29:03.660Z,7.07
2022-11-21T17:31:30.972Z,4.47
2022-11-21T17:33:59.041Z,5.72
2022-11-21T17:36:27.677Z,5.63
2022-11-21T17:38:54.563Z,5.20
2022-11-21T17:41:23.516Z,6.18
2022-11-21T17:43:54.040Z,3.92
2022-11-21T17:46:20.850Z,3.95
2022-11-21T17:48:54.974Z,4.25
2022-11-21T17:51:29.111Z,10.38
2022-11-21T17:53:56.162Z,4.72
2022-11-21T17:56:25.153Z,5.32
2022-11-21T17:58:52.485Z,4.63
2022-11-21T18:01:19.841Z,14.13
2022-11-21T18:03:47.689Z,9.20
2022-11-21T18:06:16.644Z,6.93
2022-11-21T18:08:46.066Z,10.23
2022-11-21T18:11:18.312Z,6.75
2022-11-21T18:13:45.834Z,4.35
2022-11-21T18:16:15.466Z,7.47
2022-11-21T18:18:42.446Z,7.68
2022-11-21T18:21:14.756Z,6.93
2022-11-21T18:23:42.060Z,6.65
2022-11-21T18:26:13.054Z,5.50
2022-11-21T18:28:40.257Z,6.32
2022-11-21T18:31:12.426Z,9.18
2022-11-21T18:33:39.830Z,11.45
2022-11-21T18:36:07.924Z,9.10
2022-11-21T18:38:48.757Z,8.27
2022-11-21T18:41:19.413Z,11.18
2022-11-21T18:43:54.613Z,7.22
2022-11-21T18:46:22.982Z,6.95
2022-11-21T18:49:04.669Z,6.30
2022-11-21T18:51:32.939Z,4.55
2022-11-21T18:54:04.301Z,8.38
2022-11-21T18:56:31.192Z,7.90
2022-11-21T18:58:59.024Z,4.47
2022-11-21T19:01:28.725Z,5.40
2022-11-21T19:03:56.326Z,5.47
2022-11-21T19:06:24.606Z,6.15
2022-11-21T19:08:53.421Z,7.95
2022-11-21T19:11:21.923Z,7.47
2022-11-21T19:13:48.957Z,8.02
2022-11-21T19:16:18.412Z,6.63
2022-11-21T19:18:55.320Z,4.90
2022-11-21T19:21:35.819Z,8.88
2022-11-21T19:24:02.560Z,5.22
2022-11-21T19:26:31.163Z,7.35
2022-11-21T19:28:58.817Z,5.45
2022-11-21T19:31:25.629Z,4.88
2022-11-21T19:33:52.280Z,5.70
2022-11-21T19:36:21.073Z,8.75
2022-11-21T19:38:50.868Z,5.90
2022-11-21T19:41:22.110Z,6.20
2022-11-21T19:43:54.110Z,8.10
2022-11-21T19:46:23.140Z,6.63
2022-11-21T19:48:51.529Z,8.02
2022-11-21T19:51:20.147Z,9.73
2022-11-21T19:53:46.874Z,10.05
2022-11-21T19:56:18.727Z,12.15
2022-11-21T19:58:46.361Z,7.78
2022-11-21T20:01:15.808Z,8.95
2022-11-21T20:03:46.347Z,21.85
2022-11-21T20:06:25.105Z,16.30
2022-11-21T20:08:56.756Z,9.05
2022-11-21T20:11:24.487Z,10.45
2022-11-21T20:13:51.548Z,15.05
2022-11-21T20:16:22.781Z,8.60
2022-11-21T20:18:50.628Z,8.82
2022-11-21T20:21:18.363Z,8.13
2022-11-21T20:23:46.322Z,9.18
2022-11-21T20:26:14.036Z,12.70
2022-11-21T20:28:40.860Z,34.55
2022-11-21T20:31:12.351Z,16.15
2022-11-21T20:33:42.334Z,9.40
2022-11-21T20:36:16.210Z,9.50
2022-11-21T20:38:43.863Z,29.90
2022-11-21T20:41:10.479Z,17.50
2022-11-21T20:44:14.279Z,30.90
2022-11-21T20:46:23.924Z,21.88
2022-11-21T20:48:50.657Z,16.05
2022-11-21T20:54:04.635Z,12.45
2022-11-21T20:56:36.138Z,13.00
2022-11-21T20:59:03.948Z,12.43
2022-11-21T21:01:31.960Z,10.48
2022-11-21T21:03:58.620Z,8.60
2022-11-21T21:06:25.834Z,9.00
2022-11-21T21:08:52.798Z,7.75
2022-11-21T21:11:49.660Z,8.32
2022-11-21T21:14:08.026Z,8.55
2022-11-21T21:16:34.643Z,8.40
2022-11-21T21:19:01.315Z,7.28
2022-11-21T21:21:30.863Z,6.45
2022-11-21T21:24:08.579Z,6.38
2022-11-21T21:26:42.498Z,11.18
2022-11-21T21:29:11.927Z,5.00
2022-11-21T21:31:40.235Z,5.05
2022-11-21T21:34:10.146Z,6.57
2022-11-21T21:36:36.868Z,12.45
2022-11-21T21:39:04.061Z,5.18
2022-11-21T21:41:31.708Z,6.38
2022-11-21T21:43:58.541Z,6.15
2022-11-21T21:46:27.157Z,6.93
2022-11-21T21:48:56.200Z,11.52
2022-11-21T21:51:31.357Z,7.05
2022-11-21T21:53:59.078Z,8.52
2022-11-21T21:56:27.926Z,7.28
2022-11-21T21:58:55.780Z,6.82
2022-11-21T22:01:27.759Z,5.03
2022-11-21T22:03:56.890Z,5.32
2022-11-21T22:06:23.795Z,5.60
2022-11-21T22:08:51.569Z,6.40
2022-11-21T22:11:22.482Z,6.72
2022-11-21T22:13:57.717Z,7.13
2022-11-21T22:16:24.798Z,7.93
2022-11-21T22:18:51.911Z,4.85
2022-11-21T22:21:19.520Z,4.20
2022-11-21T22:24:09.807Z,7.70
2022-11-21T22:26:34.000Z,5.43
2022-11-21T22:29:00.737Z,5.65
2022-11-21T22:31:30.560Z,9.45
2022-11-21T22:33:57.760Z,7.55
2022-11-21T22:36:24.817Z,7.28
2022-11-21T22:38:56.054Z,9.73
2022-11-21T22:41:25.594Z,8.45
2022-11-21T22:43:59.589Z,8.88
2022-11-21T22:46:28.037Z,7.13
2022-11-21T22:48:55.752Z,8.43
2022-11-21T22:51:25.526Z,8.90
2022-11-21T22:53:52.810Z,7.45
2022-11-21T22:56:22.337Z,6.40
2022-11-21T22:58:50.589Z,6.22
2022-11-21T23:01:20.321Z,7.82
2022-11-21T23:03:47.661Z,7.18
2022-11-21T23:06:18.942Z,5.85
2022-11-21T23:08:46.943Z,10.02
2022-11-21T23:11:16.027Z,4.40
2022-11-21T23:13:45.151Z,6.63
2022-11-21T23:16:13.060Z,4.63
2022-11-21T23:18:40.610Z,8.52
2022-11-21T23:21:08.134Z,5.78
2022-11-21T23:23:35.793Z,5.10
2022-11-21T23:26:03.003Z,5.43
2022-11-21T23:28:30.912Z,9.15
2022-11-21T23:30:57.936Z,6.10
2022-11-21T23:33:24.648Z,6.57
2022-11-21T23:35:51.405Z,5.28
2022-11-21T23:38:19.286Z,5.43
2022-11-21T23:40:47.913Z,7.38
2022-11-21T23:43:16.362Z,4.63
2022-11-21T23:45:43.593Z,7.32
2022-11-21T23:48:10.324Z,6.20
2022-11-21T23:50:37.286Z,5.47
2022-11-21T23:53:04.175Z,8.30
2022-11-21T23:55:31.114Z,7.82
2022-11-21T23:57:59.287Z,6.10
